Time;durP1;ratioP1;P1;durP2;ratioP2;P2;SDS_P1;SDS_P2;PMS_P1;PMS_P2;Temp;Humidity;BMP_temperature;BMP_pressure;BME280_temperature;BME280_humidity;BME280_pressure;Samples;Min_cycle;Max_cycle;Signal;HPM_P1;HPM_P2
2023/08/01 00:02:04;;;;;;;19.92;14.50;;;;;;;19.99;87.42;98939.69;6132670;23;19997;-87
2023/08/01 00:04:29;;;;;;;24.48;14.90;;;;;;;19.91;87.41;98935.13;6133194;22;20033;-87
2023/08/01 00:06:55;;;;;;;19.05;14.48;;;;;;;19.87;86.19;98923.28;6133259;23;20062;-87
2023/08/01 00:09:20;;;;;;;19.08;14.32;;;;;;;19.92;86.38;98931.25;6133433;22;19996;-87
2023/08/01 00:11:46;;;;;;;19.90;15.23;;;;;;;19.87;86.06;98925.22;6132834;23;20012;-88
2023/08/01 00:14:11;;;;;;;18.02;14.02;;;;;;;19.84;87.48;98928.63;6131916;23;20406;-87
2023/08/01 00:16:37;;;;;;;17.77;12.90;;;;;;;19.81;86.94;98921.91;6132738;23;20352;-87
2023/08/01 00:19:02;;;;;;;19.85;13.57;;;;;;;19.69;87.91;98916.41;6133714;23;20001;-87
2023/08/01 00:21:30;;;;;;;20.15;13.90;;;;;;;19.69;88.09;98916.41;6133327;22;20142;-87
2023/08/01 00:23:56;;;;;;;19.27;14.43;;;;;;;19.63;88.21;98912.31;6135712;22;20028;-87
2023/08/01 00:26:21;;;;;;;22.85;13.77;;;;;;;19.66;87.53;98917.09;6133497;22;20001;-87
2023/08/01 00:28:47;;;;;;;19.60;14.45;;;;;;;19.53;87.68;98903.44;6133678;22;20001;-87
2023/08/01 00:31:12;;;;;;;16.25;13.27;;;;;;;19.59;87.74;98907.53;6132981;23;20005;-87
2023/08/01 00:33:38;;;;;;;17.23;13.13;;;;;;;19.63;87.63;98915.84;6132400;23;20002;-87
2023/08/01 00:36:08;;;;;;;22.10;15.10;;;;;;;19.64;88.21;98922.09;6132758;23;20355;-87
2023/08/01 00:38:34;;;;;;;19.15;14.48;;;;;;;19.56;88.55;98918.34;6140977;22;20000;-87
2023/08/01 00:41:02;;;;;;;18.38;13.93;;;;;;;19.51;88.16;98919.34;6132629;23;20000;-87
2023/08/01 00:43:28;;;;;;;18.00;13.73;;;;;;;19.37;88.71;98908.75;6133296;22;20328;-87
2023/08/01 00:45:58;;;;;;;18.75;13.43;;;;;;;19.37;88.70;98910.69;6132976;23;20013;-87
2023/08/01 00:48:23;;;;;;;19.77;14.40;;;;;;;19.42;89.51;98918.66;6135670;22;20005;-87
2023/08/01 00:50:49;;;;;;;20.98;14.60;;;;;;;19.40;88.91;98918.19;6132342;23;20427;-87
2023/08/01 00:53:14;;;;;;;20.75;14.23;;;;;;;19.37;89.08;98910.69;6132298;23;20000;-87
2023/08/01 00:55:40;;;;;;;16.13;13.63;;;;;;;19.35;88.82;98902.81;6132235;23;19997;-87
2023/08/01 00:58:05;;;;;;;15.85;13.15;;;;;;;19.31;88.98;98899.19;6132716;23;20013;-87
2023/08/01 01:00:32;;;;;;;19.55;13.80;;;;;;;19.34;89.21;98901.25;6132757;23;19997;-87
2023/08/01 01:02:58;;;;;;;18.25;14.80;;;;;;;19.41;89.30;98905.34;6134569;22;20054;-87
2023/08/01 01:05:23;;;;;;;19.08;14.35;;;;;;;19.36;88.72;98903.63;6133122;22;20435;-87
2023/08/01 01:07:50;;;;;;;19.15;13.85;;;;;;;19.32;89.34;98898.06;6134169;22;20000;-86
2023/08/01 01:10:15;;;;;;;19.85;14.63;;;;;;;19.29;89.22;98895.97;6134175;22;20081;-87
2023/08/01 01:12:41;;;;;;;19.15;13.80;;;;;;;19.24;89.36;98887.25;6131760;23;20064;-87
2023/08/01 01:15:06;;;;;;;19.10;15.57;;;;;;;19.25;89.50;98892.34;6133782;23;20004;-87
2023/08/01 01:17:32;;;;;;;18.73;15.65;;;;;;;19.27;89.19;98894.75;6133060;22;20023;-87
2023/08/01 01:19:58;;;;;;;19.65;14.23;;;;;;;19.36;89.07;98903.63;6132685;23;20347;-87
2023/08/01 01:22:25;;;;;;;20.42;13.85;;;;;;;19.34;88.84;98889.50;6134921;22;19997;-87
2023/08/01 01:24:50;;;;;;;21.45;13.80;;;;;;;19.33;88.63;98887.94;6133889;22;20159;-87
2023/08/01 01:27:16;;;;;;;21.17;13.25;;;;;;;19.32;88.77;98899.97;6132118;23;20001;-86
2023/08/01 01:29:41;;;;;;;20.15;14.10;;;;;;;19.34;88.24;98889.50;6133777;22;20057;-87
2023/08/01 01:32:07;;;;;;;18.80;14.15;;;;;;;19.14;88.48;98878.34;6131786;23;20009;-87
2023/08/01 01:34:33;;;;;;;19.38;13.68;;;;;;;19.15;89.00;98887.31;6134094;22;20415;-87
2023/08/01 01:36:58;;;;;;;16.73;13.93;;;;;;;19.04;89.63;98870.56;6157287;23;20005;-87
2023/08/01 01:39:24;;;;;;;20.13;15.38;;;;;;;19.01;90.06;98887.63;6157619;23;20348;-87
2023/08/01 01:41:49;;;;;;;22.55;15.45;;;;;;;19.05;90.45;98888.56;6132987;23;20416;-87
2023/08/01 01:44:15;;;;;;;22.85;15.40;;;;;;;19.02;90.69;98874.78;6157095;23;20001;-87
2023/08/01 01:46:40;;;;;;;23.58;15.23;;;;;;;18.99;90.62;98873.53;6132794;23;20005;-87
2023/08/01 01:49:06;;;;;;;17.30;14.13;;;;;;;19.10;89.34;98880.13;6133236;22;20028;-88
2023/08/01 01:51:31;;;;;;;20.02;15.77;;;;;;;19.06;88.94;98879.22;6132288;23;20009;-88
2023/08/01 01:53:57;;;;;;;22.92;14.45;;;;;;;19.06;89.16;98873.75;6131698;22;20001;-87
2023/08/01 01:56:22;;;;;;;23.17;15.68;;;;;;;19.20;89.28;98886.31;6132483;23;20012;-87
2023/08/01 01:58:48;;;;;;;27.55;14.75;;;;;;;19.13;89.01;98876.75;6157456;23;20025;-87
2023/08/01 02:01:13;;;;;;;20.45;13.93;;;;;;;19.16;89.48;98884.25;6132750;23;19997;-87
2023/08/01 02:03:39;;;;;;;22.10;14.30;;;;;;;19.07;89.05;98878.09;6131992;23;20001;-87
2023/08/01 02:06:04;;;;;;;16.50;13.82;;;;;;;19.06;89.83;98879.22;6132872;22;20001;-87
2023/08/01 02:08:30;;;;;;;19.33;14.68;;;;;;;19.04;89.98;98891.63;6157518;23;20008;-87
2023/08/01 02:10:58;;;;;;;21.05;14.85;;;;;;;18.99;89.88;98889.91;6132500;22;20029;-87
2023/08/01 02:13:24;;;;;;;20.33;14.75;;;;;;;18.96;89.45;98898.75;6135094;22;19997;-87
2023/08/01 02:15:51;;;;;;;20.90;15.63;;;;;;;18.91;90.16;98890.78;6133552;22;20009;-87
2023/08/01 02:18:17;;;;;;;17.98;14.65;;;;;;;18.95;90.54;98897.94;6134494;22;20005;-87
2023/08/01 02:20:42;;;;;;;20.65;15.75;;;;;;;18.93;90.93;98893.97;6132775;23;20006;-88
2023/08/01 02:23:08;;;;;;;19.38;15.38;;;;;;;18.85;90.87;98889.38;6132255;23;20082;-87
2023/08/01 02:25:41;;;;;;;19.30;14.27;;;;;;;18.83;90.72;98888.94;6132211;23;20005;-87
2023/08/01 02:28:07;;;;;;;23.05;16.00;;;;;;;18.81;90.52;98883.00;6135772;22;20016;-87
2023/08/01 02:30:33;;;;;;;18.20;14.52;;;;;;;18.80;90.58;98889.59;6132993;22;20392;-87
2023/08/01 02:32:58;;;;;;;18.42;14.38;;;;;;;18.70;90.54;98883.38;6157346;22;20002;-87
2023/08/01 02:35:24;;;;;;;18.58;14.95;;;;;;;18.68;90.91;98884.88;6286402;22;20008;-87
2023/08/01 02:37:49;;;;;;;21.00;15.98;;;;;;;18.65;90.25;98890.97;6132507;23;20001;-87
2023/08/01 02:40:15;;;;;;;21.17;15.10;;;;;;;18.65;90.62;98889.03;6132378;23;20001;-87
2023/08/01 02:42:40;;;;;;;24.85;14.50;;;;;;;18.70;90.56;98897.03;6132074;22;20001;-88
2023/08/01 02:45:06;;;;;;;17.98;14.00;;;;;;;18.70;90.00;98897.03;6155790;23;20009;-87
2023/08/01 02:47:32;;;;;;;18.92;15.30;;;;;;;18.71;90.34;98911.47;6157166;22;20072;-87
2023/08/01 02:49:57;;;;;;;23.42;15.13;;;;;;;18.64;90.13;98895.63;6132001;23;20142;-87
2023/08/01 02:52:23;;;;;;;18.98;15.95;;;;;;;18.67;90.05;98899.63;6156703;23;20004;-87
2023/08/01 02:54:48;;;;;;;19.35;14.93;;;;;;;18.66;90.56;98898.03;6131687;23;20062;-87
2023/08/01 02:57:13;;;;;;;18.23;14.43;;;;;;;18.73;89.96;98898.28;6131619;23;20022;-87
2023/08/01 02:59:39;;;;;;;18.42;13.57;;;;;;;18.82;89.41;98901.75;6131765;23;19997;-87
2023/08/01 03:02:04;;;;;;;17.20;13.38;;;;;;;18.85;88.95;98901.09;6131504;23;19993;-87
2023/08/01 03:04:32;;;;;;;21.67;14.02;;;;;;;19.00;88.36;98916.03;6130959;23;20424;-87
2023/08/01 03:06:57;;;;;;;17.30;12.95;;;;;;;18.91;88.26;98901.69;6260431;22;20001;-87
2023/08/01 03:09:23;;;;;;;12.90;9.73;;;;;;;18.85;85.80;98897.56;6131832;23;20074;-87
2023/08/01 03:11:49;;;;;;;13.10;9.85;;;;;;;18.79;85.64;98891.53;6237620;23;20321;-87
2023/08/01 03:14:14;;;;;;;12.43;8.20;;;;;;;18.85;85.54;98909.28;6236980;23;19997;-87
2023/08/01 03:16:39;;;;;;;13.45;8.88;;;;;;;18.80;85.48;98903.22;6262692;22;20004;-87
2023/08/01 03:19:05;;;;;;;14.40;8.63;;;;;;;18.75;85.02;98904.19;6262692;22;19985;-87
2023/08/01 03:21:34;;;;;;;13.18;8.85;;;;;;;18.78;85.76;98909.81;6237374;22;19997;-87
2023/08/01 03:24:00;;;;;;;11.73;9.32;;;;;;;18.76;85.57;98900.34;6236854;22;20025;-87
2023/08/01 03:26:25;;;;;;;13.15;9.68;;;;;;;18.72;85.75;98905.69;6236643;22;20439;-87
2023/08/01 03:28:51;;;;;;;12.50;9.93;;;;;;;18.69;86.11;98911.78;6235690;22;20036;-87
2023/08/01 03:31:16;;;;;;;13.52;10.10;;;;;;;18.65;86.04;98904.59;6262376;22;20005;-87
2023/08/01 03:33:42;;;;;;;16.40;8.93;;;;;;;18.49;86.16;98907.94;6158314;23;20059;-87
2023/08/01 03:36:07;;;;;;;17.83;10.07;;;;;;;18.39;87.00;98919.25;6236625;23;20008;-87
2023/08/01 03:38:33;;;;;;;13.50;9.65;;;;;;;18.30;88.00;98916.59;6134483;22;20007;-88
2023/08/01 03:40:58;;;;;;;10.70;9.30;;;;;;;18.33;86.91;98904.22;6261700;22;19992;-88
2023/08/01 03:43:24;;;;;;;15.63;10.38;;;;;;;18.29;87.64;98914.19;6237217;23;20058;-87
2023/08/01 03:45:50;;;;;;;23.38;10.25;;;;;;;18.35;87.06;98919.09;6132799;23;20439;-88
2023/08/01 03:48:15;;;;;;;16.00;10.50;;;;;;;18.34;87.59;98920.25;6158938;22;20001;-88
2023/08/01 03:50:41;;;;;;;14.70;10.30;;;;;;;18.25;88.26;98913.25;6158025;23;20005;-88
2023/08/01 03:53:07;;;;;;;14.10;10.40;;;;;;;18.20;88.82;98930.59;6133998;22;20009;-87
2023/08/01 03:55:32;;;;;;;16.48;10.60;;;;;;;18.05;89.50;98914.81;6133291;22;20020;-87
2023/08/01 03:57:58;;;;;;;17.38;10.73;;;;;;;18.06;89.53;98927.31;6133175;22;20509;-88
2023/08/01 04:00:23;;;;;;;24.33;13.18;;;;;;;18.30;89.23;98945.75;6157810;23;19993;-88
2023/08/01 04:02:49;;;;;;;17.90;14.55;;;;;;;18.32;89.25;98932.59;6157533;23;20001;-88
2023/08/01 04:05:14;;;;;;;25.30;12.65;;;;;;;18.43;89.52;98943.91;6131562;23;20031;-88
2023/08/01 04:07:40;;;;;;;27.40;20.80;;;;;;;18.34;88.79;98925.69;6133833;22;20001;-88
2023/08/01 04:10:06;;;;;;;23.73;14.90;;;;;;;18.33;87.94;98921.34;6158707;22;20324;-88
2023/08/01 04:12:32;;;;;;;25.27;12.88;;;;;;;18.52;87.89;98937.25;6134620;22;20012;-88
2023/08/01 04:14:58;;;;;;;15.43;10.70;;;;;;;18.66;85.67;98942.47;6133813;22;20001;-87
2023/08/01 04:17:24;;;;;;;15.18;9.93;;;;;;;18.67;85.13;98930.41;6133833;22;20004;-88
2023/08/01 04:19:49;;;;;;;14.40;7.63;;;;;;;18.95;83.54;98949.00;6236374;23;20005;-86
2023/08/01 04:22:14;;;;;;;12.32;7.40;;;;;;;19.00;81.98;98928.88;6260915;22;20000;-86
2023/08/01 04:24:40;;;;;;;10.20;6.85;;;;;;;19.16;80.39;98941.56;6260745;22;20024;-87
2023/08/01 04:27:05;;;;;;;7.97;6.57;;;;;;;19.17;79.56;98934.16;6261001;22;20001;-86
2023/08/01 04:29:31;;;;;;;12.35;6.35;;;;;;;19.38;78.59;98945.84;6235928;23;20004;-85
2023/08/01 04:31:56;;;;;;;10.85;6.80;;;;;;;19.62;77.87;98960.69;6235994;23;20008;-86
2023/08/01 04:34:23;;;;;;;9.75;5.45;;;;;;;19.84;77.15;98943.09;6235832;22;20058;-86
2023/08/01 04:36:48;;;;;;;7.75;5.07;;;;;;;20.04;75.08;98948.78;6236146;22;20071;-86
2023/08/01 04:39:14;;;;;;;7.38;4.47;;;;;;;20.25;73.14;98957.66;6235600;23;19997;-86
2023/08/01 04:41:39;;;;;;;9.77;5.03;;;;;;;20.35;73.44;98948.19;6261728;22;20004;-86
2023/08/01 04:44:06;;;;;;;12.60;4.32;;;;;;;20.55;72.47;98941.78;6236127;23;20005;-86
2023/08/01 04:46:31;;;;;;;9.57;7.07;;;;;;;20.63;72.34;98939.25;6262469;22;20005;-87
2023/08/01 04:48:57;;;;;;;8.32;5.07;;;;;;;20.81;72.01;98953.47;6236773;22;19984;-88
2023/08/01 04:51:22;;;;;;;11.73;6.00;;;;;;;20.71;71.96;98935.59;6235719;23;20005;-87
2023/08/01 04:53:48;;;;;;;7.47;4.45;;;;;;;20.78;71.54;98955.75;6234818;23;20446;-87
2023/08/01 04:56:14;;;;;;;12.93;6.07;;;;;;;20.67;72.06;98951.94;6237760;22;20001;-89
2023/08/01 04:58:39;;;;;;;73.55;41.70;;;;;;;20.49;73.26;98939.63;6237081;22;20409;-87
2023/08/01 05:01:07;;;;;;;17.15;7.57;;;;;;;20.36;72.03;98958.78;6133499;22;20039;-87
2023/08/01 05:03:33;;;;;;;51.70;24.15;;;;;;;20.29;72.90;98961.28;6262603;22;20000;-87
2023/08/01 05:05:58;;;;;;;64.05;39.83;;;;;;;20.24;74.13;98961.53;6134376;22;20000;-88
2023/08/01 05:08:27;;;;;;;14.77;9.73;;;;;;;20.27;74.26;98962.78;6133529;23;20003;-88
2023/08/01 05:10:53;;;;;;;213.57;66.88;;;;;;;20.14;74.52;98960.06;6239578;22;19997;-89
2023/08/01 05:13:19;;;;;;;116.63;68.00;;;;;;;20.00;75.93;98956.88;6263261;22;20037;-87
2023/08/01 05:15:47;;;;;;;53.47;33.65;;;;;;;19.99;76.41;98958.81;6135622;22;20012;-89
2023/08/01 05:18:16;;;;;;;39.95;27.33;;;;;;;20.13;75.91;98969.41;6160102;22;20385;-91
2023/08/01 05:20:42;;;;;;;337.67;95.65;;;;;;;20.18;77.21;98966.44;6137128;22;20076;-87
2023/08/01 05:23:07;;;;;;;54.88;31.30;;;;;;;20.21;75.64;98975.09;6160170;23;20024;-93
2023/08/01 05:25:33;;;;;;;16.35;9.20;;;;;;;20.33;74.46;98970.41;6137562;22;20001;-92
2023/08/01 05:28:01;;;;;;;32.80;14.50;;;;;;;20.44;72.63;98970.75;6238460;23;20313;-90
2023/08/01 05:30:27;;;;;;;14.18;5.75;;;;;;;20.47;71.08;98961.06;6137428;22;20012;-90
2023/08/01 05:33:43;;;;;;;13.30;7.43;;;;;;;20.60;70.75;98962.66;6239509;22;20439;-92
2023/08/01 05:36:53;;;;;;;8.50;5.30;;;;;;;20.76;69.40;98969.00;6202228;23;20087;-93
2023/08/01 05:39:21;;;;;;;13.02;6.38;;;;;;;20.89;69.49;98967.00;6201247;23;20039;-92
2023/08/01 05:41:51;;;;;;;11.73;8.20;;;;;;;20.96;68.56;98960.97;6225336;22;20043;-90
2023/08/01 05:44:19;;;;;;;10.57;4.85;;;;;;;20.87;68.67;98954.81;6270638;22;20013;-91
2023/08/01 05:46:45;;;;;;;7.07;5.20;;;;;;;20.97;67.55;98935.97;6242537;23;20066;-92
2023/08/01 05:49:26;;;;;;;7.38;3.83;;;;;;;21.21;68.14;98975.34;6262245;22;19997;-94
2023/08/01 05:52:20;;;;;;;6.82;3.97;;;;;;;21.28;66.59;98983.75;6245590;22;20005;-94
2023/08/01 05:54:45;;;;;;;25.38;17.77;;;;;;;21.31;65.91;98947.47;6269117;22;20005;-93
2023/08/01 05:57:11;;;;;;;41.03;23.20;;;;;;;21.67;66.10;98973.06;6136368;23;19997;-93
2023/08/01 06:00:02;;;;;;;13.68;7.07;;;;;;;21.78;65.34;98979.59;6138602;22;20000;-93
2023/08/01 06:02:30;;;;;;;10.57;5.68;;;;;;;21.96;64.92;98971.81;6258649;22;20058;-94
2023/08/01 06:05:01;;;;;;;6.78;3.70;;;;;;;21.80;64.38;98938.94;6247755;23;20005;-94
2023/08/01 06:07:26;;;;;;;11.50;4.40;;;;;;;21.90;62.72;98950.53;6278574;22;20015;-95
2023/08/01 06:09:52;;;;;;;19.02;6.32;;;;;;;21.88;64.16;98956.34;6247823;22;20359;-95
2023/08/01 06:12:30;;;;;;;40.38;28.10;;;;;;;21.96;65.30;98944.41;6246126;22;20032;-94
2023/08/01 06:14:55;;;;;;;29.42;17.67;;;;;;;22.16;62.42;98964.47;6138398;22;20084;-93
2023/08/01 06:17:21;;;;;;;53.00;28.88;;;;;;;22.09;61.09;98939.63;6136267;23;20008;-95
2023/08/01 06:19:54;;;;;;;16.58;9.38;;;;;;;22.15;59.41;98946.41;6138988;22;20005;-94
2023/08/01 06:22:36;;;;;;;71.75;45.33;;;;;;;22.25;59.92;98942.38;6243176;22;20080;-96
2023/08/01 06:27:59;;;;;;;8.75;5.22;;;;;;;22.58;57.64;98936.44;6157325;22;20433;-90
2023/08/01 06:30:24;;;;;;;11.02;6.63;;;;;;;22.76;58.89;98957.97;6240770;22;20039;-89
2023/08/01 06:32:59;;;;;;;7.93;5.32;;;;;;;22.77;57.21;98923.88;6239053;23;20067;-88
2023/08/01 06:35:30;;;;;;;9.80;5.13;;;;;;;22.90;59.83;98925.31;6247273;22;20005;-96
2023/08/01 06:37:56;;;;;;;9.63;6.88;;;;;;;23.04;58.14;98946.03;6269297;22;20001;-96
2023/08/01 06:40:55;;;;;;;6.88;4.10;;;;;;;22.97;60.45;98930.97;6247247;22;20028;-96
2023/08/01 06:43:24;;;;;;;6.90;4.60;;;;;;;22.93;57.77;98926.53;6304641;22;19989;-96
2023/08/01 06:46:23;;;;;;;;;;;;;;;;;;;;;
2023/08/01 06:48:56;;;;;;;7.65;3.50;;;;;;;23.23;56.25;98935.00;6244052;22;19993;-96
2023/08/01 06:51:26;;;;;;;13.43;8.68;;;;;;;23.53;55.01;98943.41;6280694;22;19997;-96
2023/08/01 07:11:08;;;;;;;8.98;5.60;;;;;;;24.44;49.57;98949.16;6338674;22;20737;-90
2023/08/01 07:38:37;;;;;;;9.45;2.33;;;;;;;24.78;47.04;98922.50;6219695;23;20066;-88
2023/08/01 07:45:50;;;;;;;;;;;;;;;;;;;;;
2023/08/01 07:52:16;;;;;;;21.40;8.80;;;;;;;25.30;46.96;98928.22;6050738;23;20022;-89
2023/08/01 07:54:47;;;;;;;;;;;;;;;25.39;46.63;98938.94;6133704;23;20360;-91
2023/08/01 07:57:16;;;;;;;4.93;2.65;;;;;;;25.35;46.40;98919.59;6143563;23;19942;-91
2023/08/01 07:59:42;;;;;;;8.55;2.92;;;;;;;25.40;46.01;98912.94;6119422;23;20005;-91
2023/08/01 08:02:07;;;;;;;8.25;3.35;;;;;;;25.64;45.73;98910.81;6169937;23;19996;-93
2023/08/01 08:04:33;;;;;;;3.20;2.15;;;;;;;25.71;42.89;98919.13;6174650;23;20027;-89
2023/08/01 08:06:59;;;;;;;4.45;2.60;;;;;;;25.68;43.70;98917.94;6201017;23;20091;-88
2023/08/01 08:09:28;;;;;;;5.63;2.13;;;;;;;25.54;43.52;98929.63;6174940;23;20028;-90
2023/08/01 08:12:06;;;;;;;5.95;2.70;;;;;;;25.46;45.05;98927.97;6205106;23;20008;-91
2023/08/01 08:14:32;;;;;;;4.20;2.67;;;;;;;25.64;45.55;98905.28;6191612;22;20052;-90
2023/08/01 08:16:59;;;;;;;12.93;4.32;;;;;;;25.95;44.40;98934.34;6296719;22;19998;-89
2023/08/01 08:19:25;;;;;;;4.13;2.15;;;;;;;25.94;42.83;98911.47;6270263;22;20029;-90
2023/08/01 08:21:51;;;;;;;6.43;2.75;;;;;;;26.13;43.05;98915.16;6268069;22;19995;-90
2023/08/01 08:24:19;;;;;;;4.70;2.25;;;;;;;25.86;42.51;98909.00;6264011;22;20009;-90
2023/08/01 08:26:57;;;;;;;5.40;2.08;;;;;;;25.94;42.44;98913.41;6264183;22;20026;-89
2023/08/01 08:29:25;;;;;;;2.42;1.83;;;;;;;26.07;42.41;98913.94;6270275;22;19999;-90
2023/08/01 08:31:52;;;;;;;3.30;2.08;;;;;;;26.25;42.48;98903.78;6271538;22;20009;-88
2023/08/01 08:34:20;;;;;;;5.72;2.83;;;;;;;26.41;42.61;98909.00;6272924;22;20072;-92
2023/08/01 08:40:28;;;;;;;3.33;2.50;;;;;;;26.74;42.32;98902.47;6254162;23;20007;-92
2023/08/01 08:42:54;;;;;;;6.38;3.30;;;;;;;26.97;42.14;98906.88;6281431;22;20003;-93
2023/08/01 08:45:31;;;;;;;4.70;2.80;;;;;;;27.02;42.24;98909.28;6267650;22;20010;-93
2023/08/01 08:47:59;;;;;;;4.88;2.00;;;;;;;27.04;40.86;98911.63;6295635;22;19999;-94
2023/08/01 08:50:50;;;;;;;4.90;2.70;;;;;;;27.13;40.25;98912.84;6298890;22;20009;-96
2023/08/01 08:53:52;;;;;;;;;;;;;;;;;;;;;
2023/08/01 08:56:18;;;;;;;4.57;1.90;;;;;;;26.84;38.95;98883.56;6319054;22;20026;-94
2023/08/01 08:58:43;;;;;;;4.05;2.20;;;;;;;27.00;39.42;98886.78;6270277;22;20010;-94
2023/08/01 09:01:28;;;;;;;10.07;5.25;;;;;;;27.05;38.44;98872.56;6277042;22;19978;-94
2023/08/01 09:04:09;;;;;;;5.60;2.42;;;;;;;27.18;38.00;98897.84;6304172;22;20048;-94
2023/08/01 09:07:04;;;;;;;9.05;2.88;;;;;;;26.92;39.39;98863.06;6301624;22;20038;-94
2023/08/01 09:09:30;;;;;;;5.75;2.10;;;;;;;27.08;38.45;98885.59;6308355;22;20074;-94
2023/08/01 09:11:56;;;;;;;3.40;2.40;;;;;;;26.94;38.51;98857.94;6270854;22;20011;-92
2023/08/01 09:14:21;;;;;;;2.83;1.83;;;;;;;27.17;38.32;98861.13;6267112;22;20006;-95
2023/08/01 09:16:55;;;;;;;5.05;2.30;;;;;;;27.16;37.64;98867.81;6265997;22;19995;-90
2023/08/01 09:20:59;;;;;;;;;;;;;;;;;;;;;
2023/08/01 09:23:07;;;;;;;3.28;2.00;;;;;;;27.09;37.29;98869.81;6298054;22;20048;-93
2023/08/01 09:34:31;;;;;;;4.82;1.70;;;;;;;27.55;38.00;98827.59;6346207;22;20019;-95
2023/08/01 09:37:00;;;;;;;7.53;3.97;;;;;;;27.88;37.96;98850.50;6272075;22;20001;-95
2023/08/01 09:39:30;;;;;;;3.42;2.35;;;;;;;27.72;36.79;98831.53;6298144;22;20017;-94
2023/08/01 09:42:02;;;;;;;3.90;2.25;;;;;;;27.98;37.36;98855.25;6293856;22;20002;-93
2023/08/01 09:44:41;;;;;;;3.47;2.00;;;;;;;27.96;37.45;98825.19;6269933;22;20013;-94
2023/08/01 09:47:08;;;;;;;4.10;2.40;;;;;;;28.04;36.89;98831.50;6253538;22;20011;-93
2023/08/01 09:49:36;;;;;;;3.88;1.85;;;;;;;28.15;35.97;98846.09;6272960;22;20033;-94
2023/08/01 09:52:23;;;;;;;9.13;2.78;;;;;;;28.14;37.38;98816.84;6294900;22;20006;-95
2023/08/01 09:54:51;;;;;;;7.22;2.58;;;;;;;28.26;37.61;98823.91;6305156;22;20029;-96
2023/08/01 10:04:19;;;;;;;5.20;1.92;;;;;;;28.26;36.82;98806.50;6196994;23;20063;-93
2023/08/01 10:07:14;;;;;;;7.60;4.32;;;;;;;28.29;36.74;98797.41;6174925;23;20372;-96
2023/08/01 10:09:40;;;;;;;8.60;5.55;;;;;;;28.49;36.83;98809.59;6152371;23;20004;-95
2023/08/01 10:12:07;;;;;;;3.72;2.13;;;;;;;28.44;36.43;98800.91;6149620;23;20024;-96
2023/08/01 10:15:01;;;;;;;3.33;2.08;;;;;;;28.48;36.04;98799.69;6179860;23;19989;-95
2023/08/01 10:17:45;;;;;;;3.38;1.70;;;;;;;28.47;35.83;98789.00;6159954;23;20005;-91
2023/08/01 10:26:47;;;;;;;3.00;1.90;;;;;;;28.25;36.74;98807.72;6116910;23;20017;-89
2023/08/01 10:29:45;;;;;;;3.53;2.00;;;;;;;28.40;36.39;98803.69;6195017;23;20000;-88
2023/08/01 10:32:38;;;;;;;2.55;1.83;;;;;;;28.62;35.53;98807.16;6109201;23;20009;-88
2023/08/01 10:35:07;;;;;;;9.10;2.70;;;;;;;28.67;36.81;98781.00;6153290;23;20013;-87
2023/08/01 10:37:41;;;;;;;3.92;1.70;;;;;;;28.54;35.87;98794.53;6227970;22;20007;-89
2023/08/01 10:40:09;;;;;;;2.90;2.00;;;;;;;28.52;36.80;98763.69;6261069;22;20672;-87
2023/08/01 10:42:43;;;;;;;3.30;1.70;;;;;;;28.75;36.37;98785.31;6261001;22;20041;-87
2023/08/01 10:45:48;;;;;;;3.88;2.22;;;;;;;28.95;36.59;98777.25;6286737;22;20031;-87
2023/08/01 10:48:18;;;;;;;3.38;1.90;;;;;;;29.10;36.47;98778.75;6315931;22;19996;-90
2023/08/01 10:50:57;;;;;;;3.05;1.60;;;;;;;29.04;36.33;98760.19;6264129;22;19999;-92
2023/08/01 10:53:25;;;;;;;6.55;1.80;;;;;;;29.07;36.54;98751.81;6264999;22;20015;-91
2023/08/01 10:56:24;;;;;;;3.92;1.60;;;;;;;29.05;36.43;98743.13;6275244;22;19986;-94
2023/08/01 10:59:06;;;;;;;8.13;1.98;;;;;;;29.05;35.60;98740.34;6209816;22;20514;-91
2023/08/01 11:01:49;;;;;;;3.17;1.70;;;;;;;29.29;35.47;98760.00;6155228;23;20098;-91
2023/08/01 11:04:21;;;;;;;3.55;2.03;;;;;;;29.29;36.00;98737.81;6302476;22;20003;-92
2023/08/01 11:06:52;;;;;;;3.78;2.03;;;;;;;29.34;34.67;98737.34;6296939;22;20013;-90
2023/08/01 11:09:58;;;;;;;;;;;;;;;;;;;;;
2023/08/01 11:12:19;;;;;;;14.13;2.70;;;;;;;29.48;34.94;98742.75;6300946;22;20005;-90
2023/08/01 11:14:47;;;;;;;5.13;1.98;;;;;;;29.49;34.75;98711.06;6299366;22;20011;-89
2023/08/01 11:17:30;;;;;;;3.58;1.90;;;;;;;29.62;34.95;98714.09;6268256;22;20009;-90
2023/08/01 11:20:41;;;;;;;;;;;;;;;;;;;;;
2023/08/01 11:26:48;;;;;;;2.22;1.60;;;;;;;30.16;32.92;98716.25;6164865;23;20005;-93
2023/08/01 11:29:16;;;;;;;5.22;1.60;;;;;;;30.09;32.94;98691.31;6136321;23;20444;-90
2023/08/01 11:35:22;;;;;;;2.70;1.52;;;;;;;30.34;32.79;98714.03;6211558;23;20546;-88
2023/08/01 11:38:11;;;;;;;3.03;1.67;;;;;;;30.35;32.98;98712.81;6233403;22;20016;-94
2023/08/01 11:40:38;;;;;;;5.75;4.22;;;;;;;30.31;32.08;98703.75;6306378;22;20003;-93
2023/08/01 11:49:26;;;;;;;3.35;1.50;;;;;;;30.18;32.84;98684.06;6297138;22;20039;-96
2023/08/01 11:52:00;;;;;;;2.65;1.90;;;;;;;30.34;33.84;98679.91;6267068;22;20024;-96
2023/08/01 11:54:33;;;;;;;1.83;1.45;;;;;;;30.26;32.40;98676.44;6246966;22;20008;-95
2023/08/01 12:08:20;;;;;;;1.75;1.42;;;;;;;30.08;33.02;98648.13;6307294;22;20082;-94
2023/08/01 12:10:54;;;;;;;2.38;1.70;;;;;;;30.11;33.02;98642.53;6333348;22;19990;-94
2023/08/01 12:13:40;;;;;;;1.85;1.50;;;;;;;30.15;32.55;98651.59;6306665;22;20002;-96
2023/08/01 12:19:04;;;;;;;4.28;3.35;;;;;;;30.35;32.24;98642.59;6287810;22;20512;-96
2023/08/01 12:21:37;;;;;;;2.40;1.58;;;;;;;30.43;32.29;98641.28;6276790;22;20007;-96
2023/08/01 12:24:06;;;;;;;3.90;1.77;;;;;;;30.58;32.48;98642.59;6279913;22;19982;-96
2023/08/01 12:26:56;;;;;;;2.45;1.50;;;;;;;30.69;30.83;98636.88;6275349;22;19998;-95
2023/08/01 12:35:30;;;;;;;4.25;2.28;;;;;;;30.83;30.99;98630.28;6293098;22;20086;-96
2023/08/01 12:38:01;;;;;;;3.08;1.70;;;;;;;30.81;30.58;98610.47;6246648;22;20044;-93
2023/08/01 12:49:49;;;;;;;1.92;1.17;;;;;;;30.82;29.62;98606.50;6276715;22;20058;-88
2023/08/01 12:52:31;;;;;;;1.95;1.40;;;;;;;31.08;29.43;98613.19;6201304;23;20042;-89
2023/08/01 12:54:58;;;;;;;13.18;6.93;;;;;;;31.19;30.28;98635.22;6203168;23;20003;-88
2023/08/01 12:57:25;;;;;;;2.15;1.45;;;;;;;31.32;29.90;98608.34;6227278;23;20000;-90
2023/08/01 13:00:30;;;;;;;2.42;1.55;;;;;;;31.50;29.11;98616.38;6199201;23;20000;-90
2023/08/01 13:03:09;;;;;;;3.03;1.90;;;;;;;31.59;29.44;98613.03;6136326;23;20005;-91
2023/08/01 13:05:40;;;;;;;4.32;1.83;;;;;;;31.48;29.24;98596.56;6148901;23;20040;-90
2023/08/01 13:08:06;;;;;;;2.78;1.70;;;;;;;31.58;28.71;98584.38;6139036;23;20088;-92
2023/08/01 13:10:36;;;;;;;2.85;1.67;;;;;;;31.77;29.26;98585.59;6140147;23;20001;-90
2023/08/01 13:13:04;;;;;;;3.10;1.70;;;;;;;31.91;28.91;98600.41;6116493;23;20001;-90
2023/08/01 13:15:51;;;;;;;3.30;1.40;;;;;;;31.80;28.75;98575.59;6141434;23;20011;-95
2023/08/01 13:21:37;;;;;;;3.72;1.58;;;;;;;31.97;28.33;98579.94;6126002;23;20075;-88
2023/08/01 13:24:05;;;;;;;3.35;1.70;;;;;;;32.16;28.27;98580.34;6114722;23;20001;-90
2023/08/01 13:29:30;;;;;;;5.13;1.75;;;;;;;32.37;28.51;98587.41;6243808;23;20011;-88
2023/08/01 13:31:55;;;;;;;4.00;1.40;;;;;;;32.38;27.48;98575.84;6199118;23;20008;-85
2023/08/01 13:34:21;;;;;;;2.55;1.70;;;;;;;32.47;27.84;98568.88;6197917;23;20004;-88
2023/08/01 13:37:13;;;;;;;2.78;1.80;;;;;;;32.77;27.90;98574.06;6226996;23;20339;-94
2023/08/01 13:39:52;;;;;;;5.68;1.85;;;;;;;32.89;26.94;98588.50;6204804;23;20419;-88
2023/08/01 13:42:41;;;;;;;6.45;1.42;;;;;;;33.01;26.41;98559.88;6226146;23;20008;-88
2023/08/01 13:45:15;;;;;;;2.72;1.60;;;;;;;32.89;27.23;98569.00;6223839;23;20008;-87
2023/08/01 13:47:41;;;;;;;3.03;1.23;;;;;;;33.09;26.30;98569.66;6199594;23;20004;-88
2023/08/01 13:50:07;;;;;;;3.90;1.67;;;;;;;33.05;26.90;98563.38;6197255;23;20046;-86
2023/08/01 13:52:53;;;;;;;6.30;1.83;;;;;;;33.09;27.21;98552.91;6198138;23;20079;-86
2023/08/01 13:58:47;;;;;;;2.97;1.30;;;;;;;33.49;25.48;98557.38;6254196;23;20016;-87
2023/08/01 14:01:24;;;;;;;4.55;2.22;;;;;;;33.59;25.70;98556.25;6198607;23;19996;-87
2023/08/01 14:04:08;;;;;;;2.65;1.77;;;;;;;33.81;24.85;98562.00;6169970;23;20076;-87